Time;durP1;ratioP1;P1;durP2;ratioP2;P2;SDS_P1;SDS_P2;PMS_P1;PMS_P2;Temp;Humidity;BMP_temperature;BMP_pressure;BME280_temperature;BME280_humidity;BME280_pressure;Samples;Min_cycle;Max_cycle;Signal;HPM_P1;HPM_P2
2024/01/26 00:00:19;;;;;;;9.88;2.72;;;;;;;1.90;100.00;99301.13;3217072;23;20016;-90
2024/01/26 00:01:36;;;;;;;14.23;3.30;;;;;;;1.88;100.00;99296.75;3225518;23;20007;-91
2024/01/26 00:02:52;;;;;;;14.95;4.45;;;;;;;1.97;100.00;99305.56;3216101;23;20028;-90
2024/01/26 00:04:08;;;;;;;14.85;4.15;;;;;;;2.07;100.00;99298.84;3225421;23;20027;-91
2024/01/26 00:05:24;;;;;;;16.10;5.90;;;;;;;2.07;100.00;99292.84;3225400;23;20019;-91
2024/01/26 00:06:40;;;;;;;19.10;6.25;;;;;;;2.05;100.00;99295.38;3216268;23;20020;-90
2024/01/26 00:07:56;;;;;;;19.17;6.60;;;;;;;2.10;100.00;99301.53;3226553;23;20008;-91
2024/01/26 00:09:12;;;;;;;18.73;6.60;;;;;;;2.31;100.00;99299.34;3209633;23;20044;-91
2024/01/26 00:10:28;;;;;;;15.50;5.50;;;;;;;2.13;100.00;99295.53;3222351;22;20031;-91
2024/01/26 00:11:44;;;;;;;14.25;5.03;;;;;;;2.10;100.00;99296.34;3225317;23;20016;-90
2024/01/26 00:13:00;;;;;;;11.43;3.75;;;;;;;2.10;100.00;99303.22;3216225;23;20035;-90
2024/01/26 00:14:16;;;;;;;11.90;3.47;;;;;;;2.23;100.00;99301.75;3200915;23;20009;-91
2024/01/26 00:15:33;;;;;;;10.05;3.30;;;;;;;2.22;100.00;99297.41;3222309;22;20020;-90
2024/01/26 00:16:49;;;;;;;10.73;3.20;;;;;;;1.95;100.00;99290.84;3209629;23;20388;-91
2024/01/26 00:18:05;;;;;;;12.05;3.63;;;;;;;1.92;100.00;99295.97;3221822;22;20006;-91
2024/01/26 00:19:22;;;;;;;12.27;3.20;;;;;;;2.24;100.00;99298.34;3225918;23;20188;-91
2024/01/26 00:20:38;;;;;;;12.73;3.17;;;;;;;2.40;100.00;99296.91;3200177;23;20404;-90
2024/01/26 00:21:56;;;;;;;11.05;3.40;;;;;;;2.22;100.00;99293.13;3222968;22;20054;-91
2024/01/26 00:23:12;;;;;;;13.10;3.42;;;;;;;2.24;100.00;99294.03;3223193;22;20372;-91
2024/01/26 00:24:28;;;;;;;9.32;2.83;;;;;;;2.24;100.00;99293.19;3184645;23;20040;-91
2024/01/26 00:25:44;;;;;;;10.63;3.10;;;;;;;2.08;100.00;99292.84;3197570;23;20077;-91
2024/01/26 00:27:00;;;;;;;10.77;3.22;;;;;;;2.26;100.00;99288.91;3216291;23;20054;-91
2024/01/26 00:28:17;;;;;;;12.48;3.35;;;;;;;2.37;100.00;99294.28;3214792;23;20147;-90
2024/01/26 00:29:32;;;;;;;10.20;3.10;;;;;;;2.37;100.00;99297.72;3200834;23;20008;-90
2024/01/26 00:30:48;;;;;;;8.88;2.97;;;;;;;2.46;100.00;99291.88;3190879;23;20016;-91
2024/01/26 00:32:05;;;;;;;9.77;3.03;;;;;;;2.42;100.00;99295.22;3190724;23;20019;-91
2024/01/26 00:33:21;;;;;;;13.98;2.90;;;;;;;2.37;100.00;99291.69;3175213;23;20396;-90
2024/01/26 00:34:38;;;;;;;12.48;3.38;;;;;;;2.50;100.00;99300.53;3197054;23;20020;-91
2024/01/26 00:35:55;;;;;;;9.48;3.20;;;;;;;2.23;100.00;99301.75;3193841;23;20021;-90
2024/01/26 00:37:11;;;;;;;9.68;3.17;;;;;;;2.13;100.00;99297.25;3175595;23;20473;-90
2024/01/26 00:38:27;;;;;;;10.82;3.20;;;;;;;2.02;100.00;99294.44;3207508;23;20092;-90
2024/01/26 00:39:43;;;;;;;11.68;3.22;;;;;;;1.93;100.00;99289.97;3193210;23;20016;-91
2024/01/26 00:40:59;;;;;;;10.40;3.50;;;;;;;1.89;100.00;99283.00;3184355;23;20090;-91
2024/01/26 00:42:15;;;;;;;16.00;4.00;;;;;;;2.01;100.00;99284.94;3174359;23;20047;-91
2024/01/26 00:43:32;;;;;;;12.23;4.55;;;;;;;2.15;100.00;99286.09;3200722;23;20032;-91
2024/01/26 00:44:48;;;;;;;16.90;4.57;;;;;;;2.05;100.00;99285.03;3200311;23;20020;-91
2024/01/26 00:46:04;;;;;;;14.68;4.88;;;;;;;2.17;100.00;99283.56;3210106;23;20114;-91
2024/01/26 00:47:20;;;;;;;13.15;4.68;;;;;;;2.04;100.00;99279.88;3184765;23;20017;-91
2024/01/26 00:48:37;;;;;;;16.00;4.90;;;;;;;2.10;100.00;99280.84;3191079;23;20016;-91
2024/01/26 00:49:53;;;;;;;15.13;4.32;;;;;;;2.19;100.00;99279.28;3182791;23;20051;-90
2024/01/26 00:51:12;;;;;;;14.48;4.20;;;;;;;2.18;100.00;99281.00;3176332;23;20040;-90
2024/01/26 00:52:28;;;;;;;16.13;4.88;;;;;;;2.17;100.00;99287.03;3176059;23;20013;-90
2024/01/26 00:53:44;;;;;;;12.40;4.30;;;;;;;2.32;100.00;99291.59;3200141;23;20345;-91
2024/01/26 00:55:00;;;;;;;14.07;5.20;;;;;;;2.13;100.00;99294.66;3199998;23;20017;-90
2024/01/26 00:56:17;;;;;;;14.32;4.28;;;;;;;1.79;100.00;99289.69;3184446;23;20017;-91
2024/01/26 00:57:33;;;;;;;8.13;3.20;;;;;;;1.55;100.00;99288.31;3191332;23;20016;-91
2024/01/26 00:58:49;;;;;;;8.85;3.38;;;;;;;1.61;100.00;99291.03;3200758;23;20851;-92
2024/01/26 01:00:07;;;;;;;10.60;3.60;;;;;;;1.75;100.00;99299.06;3184073;23;20013;-90
2024/01/26 01:01:24;;;;;;;13.88;3.60;;;;;;;1.70;100.00;99292.94;3185323;23;20017;-90
2024/01/26 01:02:40;;;;;;;12.13;3.05;;;;;;;1.73;100.00;99298.16;3191368;23;20191;-90
2024/01/26 01:03:57;;;;;;;13.07;3.92;;;;;;;1.67;100.00;99292.84;3185103;23;20017;-92
2024/01/26 01:05:13;;;;;;;10.77;4.05;;;;;;;1.74;100.00;99287.00;3175001;23;20349;-90
2024/01/26 01:06:29;;;;;;;13.02;3.70;;;;;;;1.68;100.00;99294.63;3200420;23;20028;-90
2024/01/26 01:07:45;;;;;;;9.23;4.25;;;;;;;1.69;100.00;99291.22;3184725;23;20017;-91
2024/01/26 01:09:01;;;;;;;11.88;4.25;;;;;;;1.76;100.00;99287.91;3185026;23;20424;-90
2024/01/26 01:10:17;;;;;;;12.50;4.13;;;;;;;1.85;100.00;99283.78;3199381;23;20023;-90
2024/01/26 01:11:33;;;;;;;11.82;3.65;;;;;;;1.85;100.00;99286.38;3199875;23;20013;-90
2024/01/26 01:12:49;;;;;;;14.32;3.67;;;;;;;1.89;100.00;99283.00;3216577;23;20019;-90
2024/01/26 01:14:05;;;;;;;14.48;3.65;;;;;;;1.79;100.00;99290.53;3193352;23;20079;-90
2024/01/26 01:15:23;;;;;;;13.93;3.03;;;;;;;1.84;100.00;99290.63;3199791;23;20009;-90
2024/01/26 01:16:39;;;;;;;12.85;4.07;;;;;;;2.28;100.00;99283.75;3200642;23;20012;-91
2024/01/26 01:17:55;;;;;;;15.57;3.83;;;;;;;2.26;100.00;99289.75;3183903;23;20008;-91
2024/01/26 01:19:11;;;;;;;12.75;3.30;;;;;;;2.29;100.00;99296.72;3174935;23;20032;-90
2024/01/26 01:20:27;;;;;;;8.68;3.35;;;;;;;2.27;100.00;99293.22;3191011;23;20431;-90
2024/01/26 01:21:45;;;;;;;7.53;3.25;;;;;;;2.44;100.00;99295.25;3200152;23;20317;-91
2024/01/26 01:23:01;;;;;;;11.65;3.35;;;;;;;2.42;100.00;99296.94;3217309;23;20012;-91
2024/01/26 01:24:17;;;;;;;11.85;3.70;;;;;;;2.14;100.00;99296.41;3194007;23;20013;-91
2024/01/26 01:25:33;;;;;;;12.93;3.20;;;;;;;2.28;100.00;99294.09;3190585;23;20023;-90
2024/01/26 01:26:49;;;;;;;8.57;3.53;;;;;;;2.48;100.00;99291.88;3201014;23;20051;-91
2024/01/26 01:28:05;;;;;;;9.10;3.70;;;;;;;2.53;100.00;99291.13;3200085;23;20046;-90
2024/01/26 01:29:21;;;;;;;13.25;4.05;;;;;;;2.54;100.00;99285.09;3215810;23;20051;-91
2024/01/26 01:30:37;;;;;;;13.32;4.38;;;;;;;2.53;100.00;99278.19;3225010;22;20008;-90
2024/01/26 01:31:53;;;;;;;11.73;3.70;;;;;;;2.54;100.00;99282.53;3225709;23;20050;-91
2024/01/26 01:33:09;;;;;;;12.15;4.25;;;;;;;2.41;100.00;99285.72;3178958;23;20036;-90
2024/01/26 01:34:25;;;;;;;18.17;5.25;;;;;;;2.47;100.00;99277.22;3190782;23;20024;-90
2024/01/26 01:35:43;;;;;;;14.73;4.53;;;;;;;2.34;100.00;99281.31;3199983;23;20340;-91
2024/01/26 01:36:59;;;;;;;9.98;4.43;;;;;;;2.29;100.00;99283.78;3176249;23;20078;-90
2024/01/26 01:38:15;;;;;;;11.05;4.20;;;;;;;2.44;100.00;99277.16;3182871;23;20017;-91
2024/01/26 01:39:31;;;;;;;12.45;4.63;;;;;;;2.44;100.00;99284.91;3209444;23;20039;-91
2024/01/26 01:40:46;;;;;;;11.02;4.63;;;;;;;2.54;100.00;99287.69;3202955;23;20031;-91
2024/01/26 01:42:04;;;;;;;12.45;4.78;;;;;;;2.45;100.00;99286.66;3210494;23;20015;-91
2024/01/26 01:43:20;;;;;;;11.45;4.15;;;;;;;2.42;100.00;99286.59;3219369;23;20016;-92
2024/01/26 01:44:36;;;;;;;11.20;4.55;;;;;;;2.19;100.00;99284.44;3218414;23;20043;-91
2024/01/26 01:45:52;;;;;;;15.55;4.90;;;;;;;2.02;100.00;99286.69;3200842;23;20013;-91
2024/01/26 01:47:12;;;;;;;12.73;4.35;;;;;;;2.13;100.00;99292.09;3216552;23;20012;-91
2024/01/26 01:48:28;;;;;;;14.80;4.25;;;;;;;2.32;100.00;99283.00;3225081;23;20008;-90
2024/01/26 01:49:44;;;;;;;11.23;4.50;;;;;;;2.42;100.00;99287.47;3199954;23;20008;-91
2024/01/26 01:51:01;;;;;;;12.68;4.57;;;;;;;2.34;100.00;99279.56;3184119;23;20028;-91
2024/01/26 01:52:18;;;;;;;11.65;4.45;;;;;;;2.17;100.00;99291.31;3213234;22;20008;-91
2024/01/26 01:53:35;;;;;;;10.88;3.70;;;;;;;2.18;100.00;99283.59;3208303;23;20108;-91
2024/01/26 01:54:53;;;;;;;11.82;3.65;;;;;;;2.03;100.00;99283.28;3206988;23;20016;-91
2024/01/26 01:56:13;;;;;;;16.55;4.18;;;;;;;1.78;100.00;99283.63;3200579;23;20012;-90
2024/01/26 01:57:31;;;;;;;11.82;3.60;;;;;;;1.74;100.00;99284.41;3192359;23;20203;-92
2024/01/26 01:58:49;;;;;;;12.05;4.40;;;;;;;1.50;100.00;99282.19;3207183;23;20516;-90
2024/01/26 02:00:07;;;;;;;9.15;2.95;;;;;;;1.39;100.00;99285.38;3200122;23;20087;-91
2024/01/26 02:01:23;;;;;;;8.07;3.10;;;;;;;1.39;100.00;99282.81;3200681;23;20091;-91
2024/01/26 02:02:39;;;;;;;10.55;2.88;;;;;;;1.29;100.00;99291.16;3221265;22;20004;-91
2024/01/26 02:04:01;;;;;;;9.57;3.83;;;;;;;1.23;100.00;99284.16;3225607;23;20031;-91
2024/01/26 02:05:18;;;;;;;16.77;3.42;;;;;;;1.41;100.00;99283.72;3201878;23;20013;-91
2024/01/26 02:06:34;;;;;;;8.77;3.17;;;;;;;1.38;100.00;99281.06;3207329;23;20049;-90
2024/01/26 02:07:51;;;;;;;11.38;3.70;;;;;;;1.50;100.00;99283.03;3199684;23;20013;-90
2024/01/26 02:09:07;;;;;;;10.68;2.67;;;;;;;1.39;100.00;99281.91;3206758;23;20012;-91
2024/01/26 02:10:23;;;;;;;12.05;3.75;;;;;;;1.52;100.00;99288.25;3199880;23;20016;-92
2024/01/26 02:11:39;;;;;;;12.57;3.15;;;;;;;1.58;100.00;99282.34;3205332;23;20070;-90
2024/01/26 02:12:55;;;;;;;13.40;3.58;;;;;;;1.82;100.00;99285.47;3214944;23;20008;-90
2024/01/26 02:14:11;;;;;;;11.77;3.60;;;;;;;1.62;100.00;99282.44;3215184;23;20016;-90
2024/01/26 02:15:27;;;;;;;10.63;3.10;;;;;;;1.78;100.00;99283.63;3215057;23;20397;-91
2024/01/26 02:16:53;;;;;;;9.88;3.55;;;;;;;1.67;100.00;99275.66;3215860;23;20019;-90
2024/01/26 02:18:09;;;;;;;11.15;2.97;;;;;;;1.68;100.00;99276.56;3217097;23;20094;-91
2024/01/26 02:19:27;;;;;;;12.02;3.45;;;;;;;1.88;100.00;99274.38;3215135;23;20070;-92
2024/01/26 02:20:44;;;;;;;12.50;3.42;;;;;;;2.09;100.00;99271.34;3216207;23;20016;-90
2024/01/26 02:22:00;;;;;;;10.07;3.78;;;;;;;2.20;100.00;99265.50;3200140;23;20021;-90
2024/01/26 02:23:23;;;;;;;7.78;3.70;;;;;;;1.90;100.00;99269.25;3207130;23;20333;-90
2024/01/26 02:24:39;;;;;;;12.20;3.80;;;;;;;2.09;100.00;99267.91;3202000;23;20012;-90
2024/01/26 02:25:56;;;;;;;12.85;3.58;;;;;;;1.86;100.00;99257.13;3191351;23;20017;-90
2024/01/26 02:27:14;;;;;;;11.90;3.65;;;;;;;1.58;100.00;99264.28;3207407;23;20034;-91
2024/01/26 02:28:31;;;;;;;13.57;3.58;;;;;;;1.90;100.00;99256.31;3226814;23;20096;-91
2024/01/26 02:29:48;;;;;;;10.85;3.92;;;;;;;1.82;100.00;99254.47;3210274;23;20012;-91
2024/01/26 02:31:05;;;;;;;9.95;3.42;;;;;;;1.39;100.00;99256.13;3217782;23;20432;-91
2024/01/26 02:32:21;;;;;;;8.80;3.80;;;;;;;1.41;100.00;99259.63;3209877;23;20012;-90
2024/01/26 02:33:39;;;;;;;15.80;4.45;;;;;;;1.68;100.00;99249.00;3188765;23;20107;-90
2024/01/26 02:34:57;;;;;;;8.70;3.75;;;;;;;1.85;100.00;99248.47;3208485;23;20024;-90
2024/01/26 02:36:13;;;;;;;13.68;3.70;;;;;;;1.91;100.00;99252.91;3185578;23;20016;-91
2024/01/26 02:37:29;;;;;;;11.25;4.32;;;;;;;1.95;100.00;99262.44;3191258;23;20024;-91
2024/01/26 02:38:45;;;;;;;11.25;4.82;;;;;;;2.02;100.00;99259.16;3206884;23;20508;-90
2024/01/26 02:40:01;;;;;;;16.58;5.82;;;;;;;2.07;100.00;99254.09;3226066;23;20078;-90
2024/01/26 02:41:17;;;;;;;14.00;5.05;;;;;;;2.10;100.00;99251.56;3199905;23;20005;-90
2024/01/26 02:42:33;;;;;;;15.88;5.47;;;;;;;2.09;100.00;99248.09;3207504;23;20039;-91
2024/01/26 02:43:50;;;;;;;16.42;5.90;;;;;;;2.15;100.00;99242.19;3216558;23;20012;-90
2024/01/26 02:45:06;;;;;;;10.43;4.80;;;;;;;2.14;100.00;99255.94;3201399;23;20008;-90
2024/01/26 02:46:23;;;;;;;18.70;5.60;;;;;;;2.16;100.00;99241.31;3207518;23;20035;-90
2024/01/26 02:47:38;;;;;;;15.80;5.05;;;;;;;2.21;100.00;99242.31;3200472;23;20067;-91
2024/01/26 02:48:55;;;;;;;14.18;4.60;;;;;;;2.26;100.00;99239.81;3207169;23;20442;-90
2024/01/26 02:50:11;;;;;;;13.85;4.88;;;;;;;2.22;100.00;99244.03;3215958;23;20012;-91
2024/01/26 02:51:27;;;;;;;9.32;3.80;;;;;;;2.16;100.00;99250.81;3201130;23;20078;-91
2024/01/26 02:52:42;;;;;;;10.02;4.05;;;;;;;2.05;100.00;99245.44;3207010;23;20020;-91
2024/01/26 02:54:01;;;;;;;10.52;4.68;;;;;;;2.03;100.00;99244.53;3216393;23;20023;-91
2024/01/26 02:55:17;;;;;;;13.10;4.72;;;;;;;1.79;100.00;99238.03;3193628;23;20043;-91
2024/01/26 02:56:34;;;;;;;11.55;5.05;;;;;;;1.86;100.00;99239.03;3198397;23;20066;-91
2024/01/26 02:57:50;;;;;;;13.65;4.88;;;;;;;1.92;100.00;99236.56;3216719;23;20073;-90
2024/01/26 02:59:06;;;;;;;14.00;4.60;;;;;;;1.86;100.00;99223.53;3201162;23;20016;-91
2024/01/26 03:00:21;;;;;;;13.77;5.13;;;;;;;1.75;100.00;99229.34;3206802;23;20019;-91
2024/01/26 03:01:37;;;;;;;17.67;5.47;;;;;;;1.97;100.00;99227.22;3215953;23;20085;-90
2024/01/26 03:02:55;;;;;;;12.40;5.05;;;;;;;1.88;100.00;99227.88;3209707;23;20088;-91
2024/01/26 03:04:13;;;;;;;11.88;4.53;;;;;;;1.74;100.00;99234.47;3199221;23;20119;-90
2024/01/26 03:05:29;;;;;;;14.65;4.88;;;;;;;1.94;100.00;99230.59;3191721;23;20020;-91
2024/01/26 03:06:45;;;;;;;12.48;4.55;;;;;;;1.97;100.00;99228.06;3222518;22;20015;-91
2024/01/26 03:08:02;;;;;;;20.15;5.53;;;;;;;2.06;100.00;99227.38;3225087;23;20218;-90
2024/01/26 03:09:18;;;;;;;13.50;4.47;;;;;;;1.97;100.00;99232.38;3215424;23;20082;-90
2024/01/26 03:10:34;;;;;;;16.50;5.13;;;;;;;2.08;100.00;99235.16;3200365;23;20013;-91
2024/01/26 03:11:50;;;;;;;12.70;4.72;;;;;;;2.02;100.00;99225.59;3222826;22;20065;-90
2024/01/26 03:13:06;;;;;;;13.50;4.72;;;;;;;2.05;100.00;99227.38;3226050;23;20054;-91
2024/01/26 03:14:21;;;;;;;19.30;5.07;;;;;;;2.08;100.00;99230.00;3199699;23;20021;-90
2024/01/26 03:15:37;;;;;;;12.02;4.13;;;;;;;2.11;100.00;99236.09;3190945;23;20432;-90
2024/01/26 03:16:54;;;;;;;13.18;4.32;;;;;;;2.08;100.00;99237.75;3207313;23;20091;-90
2024/01/26 03:18:11;;;;;;;16.00;4.45;;;;;;;2.11;100.00;99235.22;3200097;23;20024;-93
2024/01/26 03:19:27;;;;;;;14.50;4.85;;;;;;;2.15;100.00;99238.72;3190902;23;20137;-91
2024/01/26 03:20:44;;;;;;;14.43;4.28;;;;;;;2.16;100.00;99235.31;3199591;23;20013;-91
2024/01/26 03:22:00;;;;;;;9.00;4.60;;;;;;;2.17;100.00;99242.22;3192029;23;20411;-90
2024/01/26 03:23:16;;;;;;;13.77;4.35;;;;;;;2.09;100.00;99239.50;3191270;23;20423;-91
2024/01/26 03:24:34;;;;;;;9.80;4.25;;;;;;;1.63;100.00;99239.44;3216721;23;20032;-91
2024/01/26 03:25:51;;;;;;;20.13;5.10;;;;;;;1.53;100.00;99246.97;3225687;23;20020;-92
2024/01/26 03:27:07;;;;;;;10.63;4.63;;;;;;;1.23;100.00;99250.63;3215531;23;20470;-90
2024/01/26 03:28:23;;;;;;;15.02;5.07;;;;;;;1.18;100.00;99244.50;3209917;23;20087;-91
2024/01/26 03:29:40;;;;;;;20.58;5.60;;;;;;;1.23;100.00;99247.19;3217221;23;20000;-90
2024/01/26 03:30:56;;;;;;;12.02;4.68;;;;;;;1.32;100.00;99243.94;3209722;23;20051;-90
2024/01/26 03:32:12;;;;;;;22.02;6.25;;;;;;;1.75;100.00;99242.25;3215786;23;20012;-90
2024/01/26 03:33:28;;;;;;;18.38;5.40;;;;;;;1.94;100.00;99246.09;3224679;23;20016;-91
2024/01/26 03:34:44;;;;;;;17.52;5.45;;;;;;;2.07;100.00;99244.63;3226178;23;20083;-91
2024/01/26 03:36:00;;;;;;;16.17;5.70;;;;;;;2.10;100.00;99244.69;3226058;23;20006;-89
2024/01/26 03:37:16;;;;;;;17.45;5.82;;;;;;;1.96;100.00;99246.13;3200336;23;20188;-91
2024/01/26 03:38:33;;;;;;;16.33;5.28;;;;;;;1.74;100.00;99243.09;3207706;23;20011;-90
2024/01/26 03:39:49;;;;;;;16.00;5.38;;;;;;;2.00;100.00;99244.47;3226652;23;20008;-90
2024/01/26 03:41:05;;;;;;;16.65;5.55;;;;;;;2.10;100.00;99247.28;3223295;22;20589;-92
2024/01/26 03:42:21;;;;;;;16.33;6.20;;;;;;;2.11;100.00;99240.38;3216481;23;20012;-90
2024/01/26 03:43:37;;;;;;;17.60;6.00;;;;;;;2.20;100.00;99242.25;3216021;23;20012;-91
2024/01/26 03:44:53;;;;;;;14.63;6.07;;;;;;;2.23;100.00;99229.41;3216209;23;20062;-91
2024/01/26 03:46:09;;;;;;;19.88;5.93;;;;;;;2.23;100.00;99238.03;3215656;23;20073;-91
2024/01/26 03:47:28;;;;;;;15.18;5.70;;;;;;;2.18;100.00;99238.78;3215849;23;20022;-92
2024/01/26 03:48:44;;;;;;;18.08;5.65;;;;;;;2.23;100.00;99238.03;3216614;23;20015;-91
2024/01/26 03:50:00;;;;;;;15.93;4.85;;;;;;;2.15;100.00;99241.31;3215721;23;20012;-90
2024/01/26 03:51:16;;;;;;;15.23;4.88;;;;;;;1.95;100.00;99234.94;3216670;23;20467;-91
2024/01/26 03:52:32;;;;;;;17.85;4.60;;;;;;;1.63;100.00;99231.69;3225739;23;20012;-91
2024/01/26 03:53:48;;;;;;;13.38;4.95;;;;;;;1.76;100.00;99231.09;3216035;23;20076;-90
2024/01/26 03:55:06;;;;;;;13.75;5.20;;;;;;;1.63;100.00;99234.25;3184507;23;20081;-90
2024/01/26 03:56:22;;;;;;;16.15;4.25;;;;;;;1.64;100.00;99229.16;3183876;23;20050;-92
2024/01/26 03:57:38;;;;;;;15.38;4.55;;;;;;;1.56;100.00;99222.94;3190452;23;20039;-91
2024/01/26 03:58:54;;;;;;;14.38;4.25;;;;;;;1.39;100.00;99227.72;3191265;23;20437;-91
2024/01/26 04:00:11;;;;;;;11.88;3.78;;;;;;;1.33;100.00;99225.03;3191483;23;20067;-91
2024/01/26 04:01:27;;;;;;;12.18;3.83;;;;;;;1.40;100.00;99224.34;3207201;23;20007;-88
2024/01/26 04:02:45;;;;;;;10.48;4.00;;;;;;;1.37;100.00;99229.41;3216333;23;20024;-93
2024/01/26 04:04:04;;;;;;;13.90;4.13;;;;;;;1.32;100.00;99223.28;3217566;23;20797;-90
2024/01/26 04:05:20;;;;;;;20.52;5.20;;;;;;;1.48;100.00;99229.66;3216463;23;20012;-91
2024/01/26 04:06:42;;;;;;;15.32;3.80;;;;;;;1.57;100.00;99226.41;3215964;23;20015;-91
2024/01/26 04:07:59;;;;;;;18.45;4.50;;;;;;;1.41;100.00;99236.41;3201615;23;20135;-91
2024/01/26 04:09:15;;;;;;;17.63;4.18;;;;;;;1.74;100.00;99235.38;3191879;23;20022;-91
2024/01/26 04:10:31;;;;;;;11.52;3.95;;;;;;;1.94;100.00;99237.47;3203874;23;20051;-91
2024/01/26 04:11:47;;;;;;;16.73;4.07;;;;;;;1.44;100.00;99233.00;3215458;23;20012;-91
2024/01/26 04:13:03;;;;;;;14.30;3.67;;;;;;;1.42;100.00;99230.41;3226182;23;20449;-90
2024/01/26 04:14:19;;;;;;;11.18;3.45;;;;;;;1.34;100.00;99226.78;3209903;23;20016;-91
2024/01/26 04:15:36;;;;;;;15.88;4.18;;;;;;;1.51;100.00;99230.56;3191547;23;20361;-91
2024/01/26 04:16:52;;;;;;;12.57;3.80;;;;;;;1.48;100.00;99227.94;3216585;23;20079;-91
2024/01/26 04:18:08;;;;;;;11.32;4.07;;;;;;;1.36;100.00;99230.25;3209505;23;20012;-92
2024/01/26 04:19:24;;;;;;;10.90;4.18;;;;;;;1.55;100.00;99219.50;3206531;23;20008;-92
2024/01/26 04:20:40;;;;;;;14.32;4.20;;;;;;;2.00;100.00;99232.44;3216242;23;20066;-90
2024/01/26 04:21:56;;;;;;;12.43;4.43;;;;;;;2.26;100.00;99219.13;3226354;23;20011;-91
2024/01/26 04:23:12;;;;;;;11.93;4.20;;;;;;;1.99;100.00;99217.78;3224701;23;20023;-90
2024/01/26 04:24:28;;;;;;;13.40;4.50;;;;;;;2.05;100.00;99223.06;3216104;23;20416;-90
2024/01/26 04:25:46;;;;;;;13.25;4.50;;;;;;;2.29;100.00;99223.47;3231696;22;20015;-90
2024/01/26 04:27:06;;;;;;;13.82;4.20;;;;;;;2.33;100.00;99220.13;3235710;22;20419;-91
2024/01/26 04:28:22;;;;;;;12.27;4.32;;;;;;;2.37;100.00;99211.56;3224704;23;20030;-91
2024/01/26 04:29:38;;;;;;;9.90;3.83;;;;;;;2.42;100.00;99222.00;3216409;23;20448;-90
2024/01/26 04:30:55;;;;;;;12.75;4.40;;;;;;;2.37;100.00;99215.00;3215642;23;20016;-92
2024/01/26 04:32:17;;;;;;;14.38;4.30;;;;;;;2.35;100.00;99218.44;3215817;23;20012;-90
2024/01/26 04:33:36;;;;;;;12.10;4.18;;;;;;;2.43;100.00;99222.00;3226266;22;20066;-91
2024/01/26 04:34:52;;;;;;;10.80;4.10;;;;;;;2.44;100.00;99208.22;3225058;23;20024;-91
2024/01/26 04:36:08;;;;;;;11.15;3.78;;;;;;;2.54;100.00;99210.13;3200649;23;20673;-91
2024/01/26 04:37:24;;;;;;;14.10;4.35;;;;;;;2.44;100.00;99207.38;3191469;23;20020;-91
2024/01/26 04:38:41;;;;;;;15.00;4.13;;;;;;;2.48;100.00;99204.00;3207254;23;20004;-91
2024/01/26 04:39:57;;;;;;;15.30;4.53;;;;;;;2.50;100.00;99202.31;3215994;23;20019;-92
2024/01/26 04:41:13;;;;;;;13.27;3.60;;;;;;;2.57;100.00;99204.16;3200318;23;20017;-92
2024/01/26 04:42:29;;;;;;;17.65;4.70;;;;;;;2.54;100.00;99209.28;3222344;22;20505;-91
2024/01/26 04:43:45;;;;;;;11.80;4.30;;;;;;;2.47;100.00;99210.00;3209356;23;20032;-91
2024/01/26 04:45:01;;;;;;;13.65;4.55;;;;;;;2.39;100.00;99215.06;3191237;23;20012;-91
2024/01/26 04:46:17;;;;;;;15.60;5.03;;;;;;;2.48;100.00;99219.50;3205859;23;20054;-91
2024/01/26 04:47:33;;;;;;;15.80;4.45;;;;;;;2.48;100.00;99220.38;3217728;23;20016;-91
2024/01/26 04:48:49;;;;;;;13.48;4.82;;;;;;;2.44;100.00;99212.56;3230343;23;20004;-92
2024/01/26 04:50:05;;;;;;;14.77;4.80;;;;;;;2.36;100.00;99218.44;3229571;23;20455;-91
2024/01/26 04:51:21;;;;;;;13.00;4.07;;;;;;;2.44;100.00;99217.72;3219904;23;20016;-90
2024/01/26 04:52:37;;;;;;;17.63;4.70;;;;;;;2.46;100.00;99216.03;3204182;23;20027;-92
2024/01/26 04:53:53;;;;;;;15.23;4.45;;;;;;;2.44;100.00;99217.72;3192236;23;20020;-91
2024/01/26 04:55:09;;;;;;;18.58;5.20;;;;;;;2.47;100.00;99218.66;3190865;23;20098;-91
2024/01/26 04:56:25;;;;;;;15.93;5.65;;;;;;;2.60;100.00;99217.13;3190865;23;20021;-93
2024/01/26 04:57:42;;;;;;;14.35;4.80;;;;;;;2.33;100.00;99218.38;3199477;23;20024;-91
2024/01/26 04:58:58;;;;;;;9.27;3.63;;;;;;;1.81;100.00;99223.44;3206564;23;20104;-92
2024/01/26 05:00:15;;;;;;;9.82;4.22;;;;;;;2.04;100.00;99225.63;3214573;23;20042;-91
2024/01/26 05:01:31;;;;;;;16.05;5.07;;;;;;;1.82;100.00;99227.78;3216569;23;20007;-91
2024/01/26 05:02:47;;;;;;;17.27;5.13;;;;;;;2.11;100.00;99224.88;3215609;23;20047;-92
2024/01/26 05:04:03;;;;;;;17.45;5.07;;;;;;;2.13;100.00;99223.19;3215333;23;20091;-91
2024/01/26 05:05:19;;;;;;;15.02;5.00;;;;;;;2.06;100.00;99223.94;3197643;23;20028;-90
2024/01/26 05:06:35;;;;;;;14.13;4.80;;;;;;;2.19;100.00;99231.06;3200216;23;20095;-92
2024/01/26 05:07:51;;;;;;;13.35;4.03;;;;;;;2.03;100.00;99237.66;3206928;23;20062;-92
2024/01/26 05:09:09;;;;;;;13.15;4.57;;;;;;;1.88;100.00;99235.63;3216407;23;20004;-92
2024/01/26 05:10:25;;;;;;;11.90;4.13;;;;;;;1.82;100.00;99238.97;3216244;23;20012;-92
2024/01/26 05:11:40;;;;;;;14.20;4.40;;;;;;;2.16;100.00;99240.47;3199407;23;20017;-92
2024/01/26 05:12:57;;;;;;;17.77;4.40;;;;;;;2.02;100.00;99240.19;3206678;23;20399;-91
2024/01/26 05:14:14;;;;;;;12.43;4.47;;;;;;;2.25;100.00;99230.31;3225470;23;20020;-92
2024/01/26 05:15:30;;;;;;;12.50;4.57;;;;;;;2.29;100.00;99226.94;3226726;22;20031;-91
2024/01/26 05:16:46;;;;;;;14.13;5.22;;;;;;;2.36;100.00;99228.78;3208701;23;20023;-91
2024/01/26 05:18:03;;;;;;;17.40;5.13;;;;;;;2.22;100.00;99222.50;3190714;23;20107;-91
2024/01/26 05:19:23;;;;;;;13.55;4.60;;;;;;;2.37;100.00;99221.91;3207437;23;20015;-91
2024/01/26 05:20:39;;;;;;;13.27;4.90;;;;;;;2.43;100.00;99221.16;3200958;23;20023;-92
2024/01/26 05:21:55;;;;;;;13.35;4.55;;;;;;;2.24;100.00;99215.66;3204664;23;20011;-91
2024/01/26 05:23:11;;;;;;;12.65;4.75;;;;;;;2.26;100.00;99217.41;3200559;23;20055;-92
2024/01/26 05:24:30;;;;;;;13.90;4.30;;;;;;;2.08;100.00;99223.09;3207751;23;20079;-92
2024/01/26 05:25:46;;;;;;;10.93;4.82;;;;;;;2.28;100.00;99219.16;3215647;23;20066;-91
2024/01/26 05:27:03;;;;;;;14.48;5.22;;;;;;;2.18;100.00;99211.25;3215870;23;20016;-91
2024/01/26 05:28:25;;;;;;;14.63;5.13;;;;;;;2.01;100.00;99215.22;3199451;23;20004;-90
2024/01/26 05:29:46;;;;;;;11.55;4.15;;;;;;;2.10;100.00;99210.22;3195372;23;20048;-91
2024/01/26 05:31:02;;;;;;;16.10;4.25;;;;;;;2.15;100.00;99211.16;3207286;23;20058;-90
2024/01/26 05:32:19;;;;;;;13.40;5.03;;;;;;;2.16;100.00;99207.75;3214660;23;20012;-91
2024/01/26 05:33:35;;;;;;;10.93;4.60;;;;;;;2.15;100.00;99212.91;3215583;23;20016;-91
2024/01/26 05:34:52;;;;;;;15.15;4.32;;;;;;;2.26;100.00;99203.63;3199613;23;20021;-91
2024/01/26 05:36:08;;;;;;;13.73;4.78;;;;;;;2.31;100.00;99209.75;3216285;23;20004;-92
2024/01/26 05:37:26;;;;;;;17.30;4.60;;;;;;;2.23;100.00;99208.72;3208147;23;20015;-90
2024/01/26 05:38:43;;;;;;;12.02;3.83;;;;;;;2.42;100.00;99203.91;3200921;23;20031;-91
2024/01/26 05:40:04;;;;;;;9.73;3.80;;;;;;;2.48;100.00;99204.00;3192794;23;20439;-91
2024/01/26 05:41:20;;;;;;;8.63;3.95;;;;;;;2.48;100.00;99209.16;3193529;23;20012;-91
2024/01/26 05:42:37;;;;;;;15.45;4.30;;;;;;;2.50;100.00;99212.66;3209518;23;20074;-91
2024/01/26 05:43:56;;;;;;;12.43;4.32;;;;;;;2.48;100.00;99211.75;3216825;23;20015;-91
2024/01/26 05:45:13;;;;;;;11.77;4.38;;;;;;;2.51;100.00;99209.22;3209158;23;20019;-91
2024/01/26 05:46:30;;;;;;;14.07;4.57;;;;;;;2.52;100.00;99205.81;3199833;23;20008;-91
2024/01/26 05:47:47;;;;;;;13.30;4.82;;;;;;;2.49;100.00;99200.56;3216116;23;20012;-90
2024/01/26 05:49:03;;;;;;;14.52;4.70;;;;;;;2.46;100.00;99203.09;3208413;23;20092;-91
2024/01/26 05:50:21;;;;;;;15.10;4.88;;;;;;;2.50;100.00;99202.31;3184471;23;20008;-91
2024/01/26 05:51:37;;;;;;;13.85;4.93;;;;;;;2.56;100.00;99207.59;3191659;23;20011;-91
2024/01/26 05:52:54;;;;;;;12.40;5.45;;;;;;;2.63;100.00;99200.81;3198848;23;20008;-91
2024/01/26 05:54:14;;;;;;;15.10;5.13;;;;;;;2.70;100.00;99199.19;3184803;23;20013;-90
2024/01/26 05:55:30;;;;;;;13.55;5.15;;;;;;;2.70;100.00;99197.47;3207380;23;20016;-90
2024/01/26 05:56:46;;;;;;;16.27;6.18;;;;;;;2.55;100.00;99190.34;3208743;23;20039;-92